sensor_id;sensor_type;location;lat;lon;timestamp;P1;durP1;ratioP1;P2;durP2;ratioP2
2029;SDS011;1020;48.854;8.830;2023-08-06T00:00:21;3.87;;;3.57;;
2029;SDS011;1020;48.854;8.830;2023-08-06T00:02:48;4.80;;;4.40;;
2029;SDS011;1020;48.854;8.830;2023-08-06T00:05:15;4.37;;;3.97;;
2029;SDS011;1020;48.854;8.830;2023-08-06T00:07:43;4.20;;;3.70;;
2029;SDS011;1020;48.854;8.830;2023-08-06T00:10:11;5.67;;;4.83;;
2029;SDS011;1020;48.854;8.830;2023-08-06T00:12:38;5.00;;;4.07;;
2029;SDS011;1020;48.854;8.830;2023-08-06T00:15:05;4.20;;;3.90;;
2029;SDS011;1020;48.854;8.830;2023-08-06T00:17:33;4.57;;;3.77;;
2029;SDS011;1020;48.854;8.830;2023-08-06T00:20:00;4.17;;;3.77;;
2029;SDS011;1020;48.854;8.830;2023-08-06T00:22:29;4.70;;;4.33;;
2029;SDS011;1020;48.854;8.830;2023-08-06T00:24:56;5.17;;;4.67;;
2029;SDS011;1020;48.854;8.830;2023-08-06T00:27:25;4.37;;;4.07;;
2029;SDS011;1020;48.854;8.830;2023-08-06T00:29:51;4.33;;;4.03;;
2029;SDS011;1020;48.854;8.830;2023-08-06T00:32:18;4.37;;;3.97;;
2029;SDS011;1020;48.854;8.830;2023-08-06T00:34:45;4.40;;;4.00;;
2029;SDS011;1020;48.854;8.830;2023-08-06T00:37:14;4.50;;;4.10;;
2029;SDS011;1020;48.854;8.830;2023-08-06T00:39:41;4.30;;;3.90;;
2029;SDS011;1020;48.854;8.830;2023-08-06T00:42:08;4.00;;;3.70;;
2029;SDS011;1020;48.854;8.830;2023-08-06T00:44:36;3.80;;;3.50;;
2029;SDS011;1020;48.854;8.830;2023-08-06T00:47:03;4.57;;;4.27;;
2029;SDS011;1020;48.854;8.830;2023-08-06T00:49:31;4.60;;;4.13;;
2029;SDS011;1020;48.854;8.830;2023-08-06T00:51:58;4.33;;;3.90;;
2029;SDS011;1020;48.854;8.830;2023-08-06T00:54:25;4.23;;;3.80;;
2029;SDS011;1020;48.854;8.830;2023-08-06T00:56:55;4.03;;;3.57;;
2029;SDS011;1020;48.854;8.830;2023-08-06T00:59:22;4.00;;;3.60;;
2029;SDS011;1020;48.854;8.830;2023-08-06T01:01:51;3.67;;;3.37;;
2029;SDS011;1020;48.854;8.830;2023-08-06T01:04:17;4.60;;;4.20;;
2029;SDS011;1020;48.854;8.830;2023-08-06T01:06:48;4.53;;;4.13;;
2029;SDS011;1020;48.854;8.830;2023-08-06T01:09:30;4.80;;;4.37;;
2029;SDS011;1020;48.854;8.830;2023-08-06T01:12:05;4.80;;;4.33;;
2029;SDS011;1020;48.854;8.830;2023-08-06T01:14:50;5.70;;;4.10;;
2029;SDS011;1020;48.854;8.830;2023-08-06T01:17:23;4.00;;;3.70;;
2029;SDS011;1020;48.854;8.830;2023-08-06T01:19:51;4.50;;;4.10;;
2029;SDS011;1020;48.854;8.830;2023-08-06T01:22:20;3.90;;;3.60;;
2029;SDS011;1020;48.854;8.830;2023-08-06T01:24:48;5.60;;;3.90;;
2029;SDS011;1020;48.854;8.830;2023-08-06T01:27:17;3.83;;;3.53;;
2029;SDS011;1020;48.854;8.830;2023-08-06T01:29:54;4.63;;;4.27;;
2029;SDS011;1020;48.854;8.830;2023-08-06T01:32:26;3.97;;;3.57;;
2029;SDS011;1020;48.854;8.830;2023-08-06T01:34:54;4.10;;;3.80;;
2029;SDS011;1020;48.854;8.830;2023-08-06T01:37:22;4.20;;;3.90;;
2029;SDS011;1020;48.854;8.830;2023-08-06T01:39:49;4.37;;;3.97;;
2029;SDS011;1020;48.854;8.830;2023-08-06T01:42:16;4.57;;;4.17;;
2029;SDS011;1020;48.854;8.830;2023-08-06T01:44:43;4.60;;;4.13;;
2029;SDS011;1020;48.854;8.830;2023-08-06T01:47:10;3.90;;;3.60;;
2029;SDS011;1020;48.854;8.830;2023-08-06T01:49:36;4.10;;;3.80;;
2029;SDS011;1020;48.854;8.830;2023-08-06T01:52:03;3.80;;;3.50;;
2029;SDS011;1020;48.854;8.830;2023-08-06T01:54:32;3.73;;;3.50;;
2029;SDS011;1020;48.854;8.830;2023-08-06T01:56:59;4.00;;;3.70;;
2029;SDS011;1020;48.854;8.830;2023-08-06T01:59:25;4.03;;;3.73;;
2029;SDS011;1020;48.854;8.830;2023-08-06T02:01:52;3.77;;;3.37;;
2029;SDS011;1020;48.854;8.830;2023-08-06T02:04:19;3.57;;;3.27;;
2029;SDS011;1020;48.854;8.830;2023-08-06T02:06:45;3.80;;;3.43;;
2029;SDS011;1020;48.854;8.830;2023-08-06T02:09:12;3.30;;;3.10;;
2029;SDS011;1020;48.854;8.830;2023-08-06T02:11:40;3.83;;;3.47;;
2029;SDS011;1020;48.854;8.830;2023-08-06T02:14:07;3.80;;;3.27;;
2029;SDS011;1020;48.854;8.830;2023-08-06T02:16:34;3.80;;;3.60;;
2029;SDS011;1020;48.854;8.830;2023-08-06T02:19:00;3.27;;;3.07;;
2029;SDS011;1020;48.854;8.830;2023-08-06T02:21:27;3.90;;;3.60;;
2029;SDS011;1020;48.854;8.830;2023-08-06T02:23:54;3.97;;;3.67;;
2029;SDS011;1020;48.854;8.830;2023-08-06T02:26:21;3.63;;;3.40;;
2029;SDS011;1020;48.854;8.830;2023-08-06T02:28:49;4.23;;;3.93;;
2029;SDS011;1020;48.854;8.830;2023-08-06T02:31:15;3.67;;;3.40;;
2029;SDS011;1020;48.854;8.830;2023-08-06T02:33:42;3.90;;;3.60;;
2029;SDS011;1020;48.854;8.830;2023-08-06T02:36:09;3.97;;;3.57;;
2029;SDS011;1020;48.854;8.830;2023-08-06T02:38:35;4.30;;;3.90;;
2029;SDS011;1020;48.854;8.830;2023-08-06T02:41:02;3.67;;;3.30;;
2029;SDS011;1020;48.854;8.830;2023-08-06T02:43:29;3.90;;;3.60;;
2029;SDS011;1020;48.854;8.830;2023-08-06T02:45:58;4.93;;;3.40;;
2029;SDS011;1020;48.854;8.830;2023-08-06T02:48:25;4.53;;;3.37;;
2029;SDS011;1020;48.854;8.830;2023-08-06T02:50:52;4.10;;;3.70;;
2029;SDS011;1020;48.854;8.830;2023-08-06T02:53:19;2.80;;;2.60;;
2029;SDS011;1020;48.854;8.830;2023-08-06T02:55:45;3.30;;;3.00;;
2029;SDS011;1020;48.854;8.830;2023-08-06T02:58:13;5.47;;;2.80;;
2029;SDS011;1020;48.854;8.830;2023-08-06T03:00:40;2.50;;;2.23;;
2029;SDS011;1020;48.854;8.830;2023-08-06T03:03:09;3.57;;;3.23;;
2029;SDS011;1020;48.854;8.830;2023-08-06T03:05:36;2.90;;;2.70;;
2029;SDS011;1020;48.854;8.830;2023-08-06T03:08:03;3.60;;;2.67;;
2029;SDS011;1020;48.854;8.830;2023-08-06T03:10:30;3.10;;;2.67;;
2029;SDS011;1020;48.854;8.830;2023-08-06T03:12:56;3.03;;;2.37;;
2029;SDS011;1020;48.854;8.830;2023-08-06T03:15:23;3.30;;;2.70;;
2029;SDS011;1020;48.854;8.830;2023-08-06T03:17:50;2.60;;;2.23;;
2029;SDS011;1020;48.854;8.830;2023-08-06T03:20:18;3.40;;;2.93;;
2029;SDS011;1020;48.854;8.830;2023-08-06T03:22:45;2.80;;;2.43;;
2029;SDS011;1020;48.854;8.830;2023-08-06T03:25:11;4.20;;;3.40;;
2029;SDS011;1020;48.854;8.830;2023-08-06T03:27:38;4.30;;;2.33;;
2029;SDS011;1020;48.854;8.830;2023-08-06T03:30:05;2.63;;;2.43;;
2029;SDS011;1020;48.854;8.830;2023-08-06T03:32:33;2.50;;;2.30;;
2029;SDS011;1020;48.854;8.830;2023-08-06T03:35:00;4.50;;;2.10;;
2029;SDS011;1020;48.854;8.830;2023-08-06T03:37:28;3.70;;;3.33;;
2029;SDS011;1020;48.854;8.830;2023-08-06T03:39:54;2.60;;;2.40;;
2029;SDS011;1020;48.854;8.830;2023-08-06T03:42:21;6.37;;;2.97;;
2029;SDS011;1020;48.854;8.830;2023-08-06T03:44:48;2.47;;;2.27;;
2029;SDS011;1020;48.854;8.830;2023-08-06T03:47:14;4.17;;;2.80;;
2029;SDS011;1020;48.854;8.830;2023-08-06T03:49:41;4.33;;;2.50;;
2029;SDS011;1020;48.854;8.830;2023-08-06T03:52:08;3.83;;;2.50;;
2029;SDS011;1020;48.854;8.830;2023-08-06T03:54:36;2.87;;;2.60;;
2029;SDS011;1020;48.854;8.830;2023-08-06T03:57:04;5.70;;;2.80;;
2029;SDS011;1020;48.854;8.830;2023-08-06T03:59:31;3.97;;;2.83;;
2029;SDS011;1020;48.854;8.830;2023-08-06T04:01:58;2.50;;;2.23;;
2029;SDS011;1020;48.854;8.830;2023-08-06T04:04:24;3.33;;;1.73;;
2029;SDS011;1020;48.854;8.830;2023-08-06T04:06:51;2.00;;;0.90;;
2029;SDS011;1020;48.854;8.830;2023-08-06T04:09:18;1.80;;;1.60;;
2029;SDS011;1020;48.854;8.830;2023-08-06T04:11:46;1.80;;;1.60;;
2029;SDS011;1020;48.854;8.830;2023-08-06T04:14:13;1.63;;;1.53;;
2029;SDS011;1020;48.854;8.830;2023-08-06T04:16:39;1.70;;;1.60;;
2029;SDS011;1020;48.854;8.830;2023-08-06T04:19:06;2.20;;;1.30;;
2029;SDS011;1020;48.854;8.830;2023-08-06T04:21:33;1.67;;;1.10;;
2029;SDS011;1020;48.854;8.830;2023-08-06T04:23:59;1.50;;;1.40;;
2029;SDS011;1020;48.854;8.830;2023-08-06T04:26:26;1.37;;;1.27;;
2029;SDS011;1020;48.854;8.830;2023-08-06T04:28:54;1.60;;;1.50;;
2029;SDS011;1020;48.854;8.830;2023-08-06T04:31:21;1.23;;;1.10;;
2029;SDS011;1020;48.854;8.830;2023-08-06T04:33:48;1.40;;;1.30;;
2029;SDS011;1020;48.854;8.830;2023-08-06T04:36:15;1.37;;;1.20;;
2029;SDS011;1020;48.854;8.830;2023-08-06T04:38:41;1.13;;;1.00;;
2029;SDS011;1020;48.854;8.830;2023-08-06T04:41:10;1.77;;;1.00;;
2029;SDS011;1020;48.854;8.830;2023-08-06T04:43:37;1.40;;;0.93;;
2029;SDS011;1020;48.854;8.830;2023-08-06T04:46:05;1.80;;;0.80;;
2029;SDS011;1020;48.854;8.830;2023-08-06T04:48:31;1.30;;;1.00;;
2029;SDS011;1020;48.854;8.830;2023-08-06T04:50:58;0.83;;;0.83;;
2029;SDS011;1020;48.854;8.830;2023-08-06T04:53:25;1.73;;;1.17;;
2029;SDS011;1020;48.854;8.830;2023-08-06T04:55:52;1.53;;;0.90;;
2029;SDS011;1020;48.854;8.830;2023-08-06T04:58:18;2.50;;;0.90;;
2029;SDS011;1020;48.854;8.830;2023-08-06T05:00:45;0.90;;;0.60;;
2029;SDS011;1020;48.854;8.830;2023-08-06T05:03:13;1.00;;;0.80;;
2029;SDS011;1020;48.854;8.830;2023-08-06T05:05:40;1.07;;;0.90;;
2029;SDS011;1020;48.854;8.830;2023-08-06T05:08:07;1.20;;;1.10;;
2029;SDS011;1020;48.854;8.830;2023-08-06T05:10:41;2.70;;;1.00;;
2029;SDS011;1020;48.854;8.830;2023-08-06T05:13:08;1.17;;;1.07;;
2029;SDS011;1020;48.854;8.830;2023-08-06T05:15:35;1.80;;;0.80;;
2029;SDS011;1020;48.854;8.830;2023-08-06T05:18:02;1.37;;;0.93;;
2029;SDS011;1020;48.854;8.830;2023-08-06T05:20:30;0.97;;;0.97;;
2029;SDS011;1020;48.854;8.830;2023-08-06T05:22:57;0.90;;;0.87;;
2029;SDS011;1020;48.854;8.830;2023-08-06T05:25:23;1.20;;;1.00;;
2029;SDS011;1020;48.854;8.830;2023-08-06T05:27:50;1.13;;;0.90;;
2029;SDS011;1020;48.854;8.830;2023-08-06T05:30:18;1.20;;;0.90;;
2029;SDS011;1020;48.854;8.830;2023-08-06T05:32:45;0.70;;;0.70;;
2029;SDS011;1020;48.854;8.830;2023-08-06T05:35:11;1.03;;;0.90;;
2029;SDS011;1020;48.854;8.830;2023-08-06T05:37:40;2.70;;;1.00;;
2029;SDS011;1020;48.854;8.830;2023-08-06T05:40:07;1.20;;;0.90;;
2029;SDS011;1020;48.854;8.830;2023-08-06T05:42:34;1.07;;;0.90;;
2029;SDS011;1020;48.854;8.830;2023-08-06T05:45:02;1.67;;;0.83;;
2029;SDS011;1020;48.854;8.830;2023-08-06T05:47:29;0.80;;;0.80;;
2029;SDS011;1020;48.854;8.830;2023-08-06T05:49:55;2.03;;;1.00;;
2029;SDS011;1020;48.854;8.830;2023-08-06T05:52:22;1.60;;;0.83;;
2029;SDS011;1020;48.854;8.830;2023-08-06T05:54:50;1.30;;;1.10;;
2029;SDS011;1020;48.854;8.830;2023-08-06T05:57:17;1.27;;;0.93;;
2029;SDS011;1020;48.854;8.830;2023-08-06T05:59:44;1.13;;;0.93;;
2029;SDS011;1020;48.854;8.830;2023-08-06T06:02:10;1.13;;;0.70;;
2029;SDS011;1020;48.854;8.830;2023-08-06T06:04:37;0.70;;;0.70;;
2029;SDS011;1020;48.854;8.830;2023-08-06T06:07:04;0.97;;;0.60;;
2029;SDS011;1020;48.854;8.830;2023-08-06T06:09:31;1.23;;;1.10;;
2029;SDS011;1020;48.854;8.830;2023-08-06T06:11:59;1.30;;;1.00;;
2029;SDS011;1020;48.854;8.830;2023-08-06T06:14:25;0.90;;;0.60;;
2029;SDS011;1020;48.854;8.830;2023-08-06T06:16:52;0.87;;;0.80;;
2029;SDS011;1020;48.854;8.830;2023-08-06T06:19:19;1.43;;;0.70;;
2029;SDS011;1020;48.854;8.830;2023-08-06T06:21:46;0.87;;;0.80;;
2029;SDS011;1020;48.854;8.830;2023-08-06T06:24:12;0.73;;;0.73;;
2029;SDS011;1020;48.854;8.830;2023-08-06T06:26:39;0.70;;;0.70;;
2029;SDS011;1020;48.854;8.830;2023-08-06T06:29:07;0.80;;;0.67;;
2029;SDS011;1020;48.854;8.830;2023-08-06T06:31:34;0.73;;;0.60;;
2029;SDS011;1020;48.854;8.830;2023-08-06T06:34:01;0.60;;;0.60;;
2029;SDS011;1020;48.854;8.830;2023-08-06T06:36:27;2.20;;;0.70;;
2029;SDS011;1020;48.854;8.830;2023-08-06T06:38:54;0.47;;;0.47;;
2029;SDS011;1020;48.854;8.830;2023-08-06T06:41:21;0.70;;;0.70;;
2029;SDS011;1020;48.854;8.830;2023-08-06T06:43:48;0.87;;;0.60;;
2029;SDS011;1020;48.854;8.830;2023-08-06T06:46:17;0.87;;;0.50;;
2029;SDS011;1020;48.854;8.830;2023-08-06T06:48:43;0.60;;;0.47;;
2029;SDS011;1020;48.854;8.830;2023-08-06T06:51:10;0.50;;;0.40;;
2029;SDS011;1020;48.854;8.830;2023-08-06T06:53:37;3.07;;;0.40;;
2029;SDS011;1020;48.854;8.830;2023-08-06T06:56:04;1.87;;;0.50;;
2029;SDS011;1020;48.854;8.830;2023-08-06T06:58:31;0.90;;;0.40;;
2029;SDS011;1020;48.854;8.830;2023-08-06T07:00:58;0.70;;;0.40;;
2029;SDS011;1020;48.854;8.830;2023-08-06T07:03:27;0.70;;;0.30;;
2029;SDS011;1020;48.854;8.830;2023-08-06T07:05:57;0.50;;;0.40;;
2029;SDS011;1020;48.854;8.830;2023-08-06T07:08:24;0.40;;;0.40;;
2029;SDS011;1020;48.854;8.830;2023-08-06T07:10:58;1.10;;;0.40;;
2029;SDS011;1020;48.854;8.830;2023-08-06T07:13:25;0.70;;;0.50;;
2029;SDS011;1020;48.854;8.830;2023-08-06T07:15:53;0.60;;;0.60;;
2029;SDS011;1020;48.854;8.830;2023-08-06T07:18:20;1.07;;;0.57;;
2029;SDS011;1020;48.854;8.830;2023-08-06T07:20:49;0.50;;;0.40;;
2029;SDS011;1020;48.854;8.830;2023-08-06T07:23:16;0.40;;;0.30;;
2029;SDS011;1020;48.854;8.830;2023-08-06T07:25:43;1.20;;;0.60;;
2029;SDS011;1020;48.854;8.830;2023-08-06T07:28:09;0.40;;;0.37;;
2029;SDS011;1020;48.854;8.830;2023-08-06T07:30:38;0.40;;;0.30;;
2029;SDS011;1020;48.854;8.830;2023-08-06T07:33:05;0.33;;;0.30;;
2029;SDS011;1020;48.854;8.830;2023-08-06T07:35:31;1.77;;;1.50;;
2029;SDS011;1020;48.854;8.830;2023-08-06T07:38:00;1.40;;;0.30;;
2029;SDS011;1020;48.854;8.830;2023-08-06T07:40:26;0.30;;;0.30;;
2029;SDS011;1020;48.854;8.830;2023-08-06T07:42:53;0.40;;;0.30;;
2029;SDS011;1020;48.854;8.830;2023-08-06T07:45:20;0.60;;;0.30;;
2029;SDS011;1020;48.854;8.830;2023-08-06T07:47:47;0.30;;;0.30;;
2029;SDS011;1020;48.854;8.830;2023-08-06T07:50:14;0.50;;;0.30;;
2029;SDS011;1020;48.854;8.830;2023-08-06T07:52:41;0.73;;;0.30;;
2029;SDS011;1020;48.854;8.830;2023-08-06T07:55:09;0.30;;;0.30;;
2029;SDS011;1020;48.854;8.830;2023-08-06T07:57:35;0.73;;;0.30;;
2029;SDS011;1020;48.854;8.830;2023-08-06T08:00:03;0.40;;;0.37;;
2029;SDS011;1020;48.854;8.830;2023-08-06T08:02:31;0.50;;;0.30;;
2029;SDS011;1020;48.854;8.830;2023-08-06T08:04:58;0.40;;;0.30;;
2029;SDS011;1020;48.854;8.830;2023-08-06T08:07:25;0.50;;;0.40;;
2029;SDS011;1020;48.854;8.830;2023-08-06T08:09:53;0.40;;;0.30;;
2029;SDS011;1020;48.854;8.830;2023-08-06T08:12:23;0.70;;;0.30;;
2029;SDS011;1020;48.854;8.830;2023-08-06T08:14:50;0.40;;;0.30;;
2029;SDS011;1020;48.854;8.830;2023-08-06T08:17:17;0.40;;;0.30;;
2029;SDS011;1020;48.854;8.830;2023-08-06T08:19:44;0.40;;;0.40;;
2029;SDS011;1020;48.854;8.830;2023-08-06T08:22:11;0.33;;;0.30;;
2029;SDS011;1020;48.854;8.830;2023-08-06T08:24:37;0.30;;;0.20;;
2029;SDS011;1020;48.854;8.830;2023-08-06T08:27:04;0.37;;;0.20;;
2029;SDS011;1020;48.854;8.830;2023-08-06T08:29:33;0.30;;;0.30;;
2029;SDS011;1020;48.854;8.830;2023-08-06T08:31:59;0.63;;;0.30;;
2029;SDS011;1020;48.854;8.830;2023-08-06T08:34:26;0.30;;;0.20;;
2029;SDS011;1020;48.854;8.830;2023-08-06T08:36:53;0.30;;;0.20;;
2029;SDS011;1020;48.854;8.830;2023-08-06T08:39:19;0.40;;;0.40;;
2029;SDS011;1020;48.854;8.830;2023-08-06T08:41:46;0.37;;;0.33;;
2029;SDS011;1020;48.854;8.830;2023-08-06T08:44:13;1.20;;;0.40;;
2029;SDS011;1020;48.854;8.830;2023-08-06T08:46:44;0.30;;;0.30;;
2029;SDS011;1020;48.854;8.830;2023-08-06T08:49:11;0.30;;;0.30;;
2029;SDS011;1020;48.854;8.830;2023-08-06T08:51:38;0.40;;;0.30;;
2029;SDS011;1020;48.854;8.830;2023-08-06T08:54:04;0.30;;;0.30;;
2029;SDS011;1020;48.854;8.830;2023-08-06T08:56:34;0.80;;;0.30;;
2029;SDS011;1020;48.854;8.830;2023-08-06T08:59:01;0.40;;;0.37;;
2029;SDS011;1020;48.854;8.830;2023-08-06T09:01:27;0.50;;;0.33;;
2029;SDS011;1020;48.854;8.830;2023-08-06T09:03:56;0.30;;;0.30;;
2029;SDS011;1020;48.854;8.830;2023-08-06T09:06:25;0.30;;;0.30;;
2029;SDS011;1020;48.854;8.830;2023-08-06T09:08:54;0.70;;;0.40;;
2029;SDS011;1020;48.854;8.830;2023-08-06T09:11:27;0.40;;;0.30;;
2029;SDS011;1020;48.854;8.830;2023-08-06T09:13:56;0.40;;;0.30;;
2029;SDS011;1020;48.854;8.830;2023-08-06T09:16:23;0.40;;;0.30;;
2029;SDS011;1020;48.854;8.830;2023-08-06T09:18:50;0.40;;;0.30;;
2029;SDS011;1020;48.854;8.830;2023-08-06T09:21:18;0.80;;;0.40;;
2029;SDS011;1020;48.854;8.830;2023-08-06T09:23:45;0.30;;;0.30;;
2029;SDS011;1020;48.854;8.830;2023-08-06T09:26:12;0.37;;;0.30;;
2029;SDS011;1020;48.854;8.830;2023-08-06T09:28:39;0.40;;;0.30;;
2029;SDS011;1020;48.854;8.830;2023-08-06T09:31:08;0.40;;;0.30;;
2029;SDS011;1020;48.854;8.830;2023-08-06T09:33:35;0.60;;;0.37;;
2029;SDS011;1020;48.854;8.830;2023-08-06T09:36:09;0.67;;;0.30;;
2029;SDS011;1020;48.854;8.830;2023-08-06T09:38:41;0.30;;;0.30;;
2029;SDS011;1020;48.854;8.830;2023-08-06T09:41:07;0.40;;;0.30;;
2029;SDS011;1020;48.854;8.830;2023-08-06T09:43:41;0.50;;;0.50;;
2029;SDS011;1020;48.854;8.830;2023-08-06T09:46:11;0.50;;;0.50;;
2029;SDS011;1020;48.854;8.830;2023-08-06T09:48:44;0.50;;;0.40;;
2029;SDS011;1020;48.854;8.830;2023-08-06T09:51:11;0.77;;;0.40;;
2029;SDS011;1020;48.854;8.830;2023-08-06T09:53:41;0.40;;;0.40;;
2029;SDS011;1020;48.854;8.830;2023-08-06T09:56:09;0.40;;;0.30;;
2029;SDS011;1020;48.854;8.830;2023-08-06T09:58:36;0.40;;;0.40;;
2029;SDS011;1020;48.854;8.830;2023-08-06T10:01:04;2.00;;;1.80;;
2029;SDS011;1020;48.854;8.830;2023-08-06T10:03:31;0.30;;;0.30;;
2029;SDS011;1020;48.854;8.830;2023-08-06T10:06:00;0.40;;;0.30;;
2029;SDS011;1020;48.854;8.830;2023-08-06T10:08:31;0.40;;;0.30;;
2029;SDS011;1020;48.854;8.830;2023-08-06T10:10:59;0.30;;;0.30;;
2029;SDS011;1020;48.854;8.830;2023-08-06T10:13:29;0.40;;;0.30;;
2029;SDS011;1020;48.854;8.830;2023-08-06T10:15:57;0.50;;;0.30;;
2029;SDS011;1020;48.854;8.830;2023-08-06T10:18:23;0.50;;;0.30;;
2029;SDS011;1020;48.854;8.830;2023-08-06T10:20:51;0.30;;;0.30;;
2029;SDS011;1020;48.854;8.830;2023-08-06T10:23:18;0.40;;;0.30;;
2029;SDS011;1020;48.854;8.830;2023-08-06T10:25:46;0.30;;;0.30;;
2029;SDS011;1020;48.854;8.830;2023-08-06T10:28:23;0.40;;;0.30;;
2029;SDS011;1020;48.854;8.830;2023-08-06T10:31:01;0.30;;;0.30;;
2029;SDS011;1020;48.854;8.830;2023-08-06T10:33:39;0.67;;;0.50;;
2029;SDS011;1020;48.854;8.830;2023-08-06T10:36:09;0.40;;;0.40;;
2029;SDS011;1020;48.854;8.830;2023-08-06T10:38:43;0.40;;;0.37;;
2029;SDS011;1020;48.854;8.830;2023-08-06T10:41:14;0.60;;;0.60;;
2029;SDS011;1020;48.854;8.830;2023-08-06T10:43:44;0.50;;;0.50;;
2029;SDS011;1020;48.854;8.830;2023-08-06T10:46:21;1.10;;;0.80;;
2029;SDS011;1020;48.854;8.830;2023-08-06T10:48:48;2.40;;;0.83;;
2029;SDS011;1020;48.854;8.830;2023-08-06T10:51:15;1.13;;;0.80;;
2029;SDS011;1020;48.854;8.830;2023-08-06T10:53:43;0.83;;;0.80;;
2029;SDS011;1020;48.854;8.830;2023-08-06T10:56:14;0.80;;;0.80;;
2029;SDS011;1020;48.854;8.830;2023-08-06T10:58:41;0.83;;;0.83;;
2029;SDS011;1020;48.854;8.830;2023-08-06T11:01:10;0.80;;;0.80;;
2029;SDS011;1020;48.854;8.830;2023-08-06T11:03:37;0.87;;;0.87;;
2029;SDS011;1020;48.854;8.830;2023-08-06T11:06:04;0.80;;;0.80;;
2029;SDS011;1020;48.854;8.830;2023-08-06T11:08:33;1.03;;;1.03;;
2029;SDS011;1020;48.854;8.830;2023-08-06T11:11:07;1.30;;;1.20;;
2029;SDS011;1020;48.854;8.830;2023-08-06T11:13:36;1.30;;;1.10;;
2029;SDS011;1020;48.854;8.830;2023-08-06T11:16:03;1.17;;;1.17;;
2029;SDS011;1020;48.854;8.830;2023-08-06T11:18:32;2.00;;;1.60;;
2029;SDS011;1020;48.854;8.830;2023-08-06T11:20:59;2.03;;;1.77;;
2029;SDS011;1020;48.854;8.830;2023-08-06T11:23:26;2.20;;;1.80;;
2029;SDS011;1020;48.854;8.830;2023-08-06T11:25:53;2.10;;;1.90;;
2029;SDS011;1020;48.854;8.830;2023-08-06T11:28:20;1.70;;;1.60;;
2029;SDS011;1020;48.854;8.830;2023-08-06T11:30:47;2.60;;;2.10;;
2029;SDS011;1020;48.854;8.830;2023-08-06T11:33:14;1.60;;;1.50;;
2029;SDS011;1020;48.854;8.830;2023-08-06T11:35:42;2.10;;;2.00;;
2029;SDS011;1020;48.854;8.830;2023-08-06T11:38:09;1.97;;;1.83;;
2029;SDS011;1020;48.854;8.830;2023-08-06T11:40:35;2.97;;;2.00;;
2029;SDS011;1020;48.854;8.830;2023-08-06T11:43:03;3.17;;;2.27;;
2029;SDS011;1020;48.854;8.830;2023-08-06T11:45:31;2.20;;;2.00;;
2029;SDS011;1020;48.854;8.830;2023-08-06T11:48:01;2.17;;;1.97;;
2029;SDS011;1020;48.854;8.830;2023-08-06T11:50:28;2.50;;;2.30;;
2029;SDS011;1020;48.854;8.830;2023-08-06T11:52:57;2.43;;;2.23;;
2029;SDS011;1020;48.854;8.830;2023-08-06T11:55:25;2.40;;;2.13;;
2029;SDS011;1020;48.854;8.830;2023-08-06T11:57:53;3.50;;;3.20;;
2029;SDS011;1020;48.854;8.830;2023-08-06T12:00:20;3.53;;;2.10;;
2029;SDS011;1020;48.854;8.830;2023-08-06T12:02:49;2.70;;;2.40;;
2029;SDS011;1020;48.854;8.830;2023-08-06T12:05:17;2.50;;;2.30;;
2029;SDS011;1020;48.854;8.830;2023-08-06T12:07:49;2.60;;;2.50;;
2029;SDS011;1020;48.854;8.830;2023-08-06T12:10:18;2.63;;;2.43;;
2029;SDS011;1020;48.854;8.830;2023-08-06T12:12:45;2.30;;;2.10;;
2029;SDS011;1020;48.854;8.830;2023-08-06T12:15:12;3.80;;;2.40;;
2029;SDS011;1020;48.854;8.830;2023-08-06T12:17:39;1.93;;;1.83;;
2029;SDS011;1020;48.854;8.830;2023-08-06T12:20:07;2.00;;;1.70;;
2029;SDS011;1020;48.854;8.830;2023-08-06T12:22:34;2.33;;;2.13;;
2029;SDS011;1020;48.854;8.830;2023-08-06T12:25:02;1.50;;;1.40;;
2029;SDS011;1020;48.854;8.830;2023-08-06T12:27:34;2.80;;;1.50;;
2029;SDS011;1020;48.854;8.830;2023-08-06T12:30:01;1.53;;;1.47;;
2029;SDS011;1020;48.854;8.830;2023-08-06T12:32:28;2.30;;;1.10;;
2029;SDS011;1020;48.854;8.830;2023-08-06T12:34:55;1.30;;;1.20;;
2029;SDS011;1020;48.854;8.830;2023-08-06T12:37:23;1.37;;;1.27;;
2029;SDS011;1020;48.854;8.830;2023-08-06T12:39:50;1.33;;;1.17;;
2029;SDS011;1020;48.854;8.830;2023-08-06T12:42:17;1.57;;;1.30;;
2029;SDS011;1020;48.854;8.830;2023-08-06T12:44:45;1.07;;;1.03;;
2029;SDS011;1020;48.854;8.830;2023-08-06T12:47:12;1.37;;;1.27;;
2029;SDS011;1020;48.854;8.830;2023-08-06T12:49:38;1.60;;;1.10;;
2029;SDS011;1020;48.854;8.830;2023-08-06T12:52:05;1.00;;;1.00;;
2029;SDS011;1020;48.854;8.830;2023-08-06T12:54:34;1.17;;;1.03;;
2029;SDS011;1020;48.854;8.830;2023-08-06T12:57:02;1.60;;;1.33;;
2029;SDS011;1020;48.854;8.830;2023-08-06T12:59:29;2.20;;;1.00;;
2029;SDS011;1020;48.854;8.830;2023-08-06T13:01:57;1.13;;;1.03;;
2029;SDS011;1020;48.854;8.830;2023-08-06T13:04:24;1.47;;;1.27;;
2029;SDS011;1020;48.854;8.830;2023-08-06T13:06:51;1.40;;;1.00;;
2029;SDS011;1020;48.854;8.830;2023-08-06T13:09:17;0.90;;;0.90;;
2029;SDS011;1020;48.854;8.830;2023-08-06T13:11:45;0.80;;;0.70;;
2029;SDS011;1020;48.854;8.830;2023-08-06T13:14:15;1.87;;;0.80;;
2029;SDS011;1020;48.854;8.830;2023-08-06T13:16:42;1.13;;;0.80;;
2029;SDS011;1020;48.854;8.830;2023-08-06T13:19:11;0.70;;;0.70;;
2029;SDS011;1020;48.854;8.830;2023-08-06T13:21:57;0.53;;;0.53;;
2029;SDS011;1020;48.854;8.830;2023-08-06T13:24:25;1.27;;;0.73;;
2029;SDS011;1020;48.854;8.830;2023-08-06T13:26:52;1.07;;;0.97;;
2029;SDS011;1020;48.854;8.830;2023-08-06T13:29:19;1.13;;;0.90;;
2029;SDS011;1020;48.854;8.830;2023-08-06T13:31:46;1.80;;;1.00;;
2029;SDS011;1020;48.854;8.830;2023-08-06T13:34:14;0.90;;;0.90;;
2029;SDS011;1020;48.854;8.830;2023-08-06T13:36:41;0.90;;;0.90;;
2029;SDS011;1020;48.854;8.830;2023-08-06T13:39:08;1.60;;;0.87;;
2029;SDS011;1020;48.854;8.830;2023-08-06T13:41:35;1.50;;;0.93;;
2029;SDS011;1020;48.854;8.830;2023-08-06T13:44:03;1.37;;;1.00;;
2029;SDS011;1020;48.854;8.830;2023-08-06T13:46:30;0.80;;;0.80;;
2029;SDS011;1020;48.854;8.830;2023-08-06T13:48:57;1.90;;;1.20;;
2029;SDS011;1020;48.854;8.830;2023-08-06T13:51:25;2.87;;;1.33;;
2029;SDS011;1020;48.854;8.830;2023-08-06T13:53:51;1.43;;;1.20;;
2029;SDS011;1020;48.854;8.830;2023-08-06T13:56:19;0.80;;;0.80;;
2029;SDS011;1020;48.854;8.830;2023-08-06T13:58:46;2.07;;;1.20;;
2029;SDS011;1020;48.854;8.830;2023-08-06T14:01:12;1.40;;;1.30;;
2029;SDS011;1020;48.854;8.830;2023-08-06T14:03:42;1.33;;;1.20;;
2029;SDS011;1020;48.854;8.830;2023-08-06T14:06:09;0.90;;;0.90;;
2029;SDS011;1020;48.854;8.830;2023-08-06T14:08:37;2.10;;;1.50;;
2029;SDS011;1020;48.854;8.830;2023-08-06T14:11:04;1.97;;;0.90;;
2029;SDS011;1020;48.854;8.830;2023-08-06T14:13:32;3.23;;;1.03;;
2029;SDS011;1020;48.854;8.830;2023-08-06T14:15:58;1.47;;;1.33;;
2029;SDS011;1020;48.854;8.830;2023-08-06T14:18:25;6.30;;;1.00;;
2029;SDS011;1020;48.854;8.830;2023-08-06T14:20:52;1.30;;;1.20;;
2029;SDS011;1020;48.854;8.830;2023-08-06T14:23:19;1.90;;;0.87;;
2029;SDS011;1020;48.854;8.830;2023-08-06T14:25:47;2.50;;;1.00;;
2029;SDS011;1020;48.854;8.830;2023-08-06T14:28:14;1.07;;;0.80;;
2029;SDS011;1020;48.854;8.830;2023-08-06T14:30:41;1.67;;;1.47;;
2029;SDS011;1020;48.854;8.830;2023-08-06T14:33:07;1.10;;;1.00;;
2029;SDS011;1020;48.854;8.830;2023-08-06T14:35:34;1.40;;;1.30;;
2029;SDS011;1020;48.854;8.830;2023-08-06T14:38:01;1.30;;;1.20;;
2029;SDS011;1020;48.854;8.830;2023-08-06T14:40:27;4.43;;;0.93;;
2029;SDS011;1020;48.854;8.830;2023-08-06T14:42:59;1.03;;;1.03;;
2029;SDS011;1020;48.854;8.830;2023-08-06T14:45:27;1.10;;;1.10;;
2029;SDS011;1020;48.854;8.830;2023-08-06T14:47:54;1.53;;;1.00;;
2029;SDS011;1020;48.854;8.830;2023-08-06T14:50:21;3.23;;;1.30;;
2029;SDS011;1020;48.854;8.830;2023-08-06T14:52:48;0.83;;;0.80;;
2029;SDS011;1020;48.854;8.830;2023-08-06T14:55:17;0.80;;;0.80;;
2029;SDS011;1020;48.854;8.830;2023-08-06T14:57:49;3.23;;;0.93;;
2029;SDS011;1020;48.854;8.830;2023-08-06T15:00:17;1.00;;;0.90;;
2029;SDS011;1020;48.854;8.830;2023-08-06T15:02:44;1.10;;;1.00;;
2029;SDS011;1020;48.854;8.830;2023-08-06T15:05:11;1.13;;;1.03;;
2029;SDS011;1020;48.854;8.830;2023-08-06T15:07:38;0.90;;;0.90;;
2029;SDS011;1020;48.854;8.830;2023-08-06T15:10:05;2.40;;;1.17;;
2029;SDS011;1020;48.854;8.830;2023-08-06T15:12:32;0.80;;;0.80;;
2029;SDS011;1020;48.854;8.830;2023-08-06T15:14:59;1.97;;;1.10;;
2029;SDS011;1020;48.854;8.830;2023-08-06T15:17:28;1.40;;;1.23;;